Time;durP1;ratioP1;P1;durP2;ratioP2;P2;SDS_P1;SDS_P2;PMS_P1;PMS_P2;Temp;Humidity;BMP_temperature;BMP_pressure;BME280_temperature;BME280_humidity;BME280_pressure;Samples;Min_cycle;Max_cycle;Signal;HPM_P1;HPM_P2
2021/12/10 00:00:04;;;;;;;0.22;0.22;;;5.00;99.90;;;;;;5113803;28;20071;-80
2021/12/10 00:02:34;;;;;;;0.63;0.63;;;5.10;99.90;;;;;;5114113;28;20043;-80
2021/12/10 00:05:02;;;;;;;0.40;0.40;;;5.00;99.90;;;;;;5114017;28;20075;-80
2021/12/10 00:07:28;;;;;;;1.08;0.57;;;5.10;99.90;;;;;;5113585;28;20471;-80
2021/12/10 00:09:59;;;;;;;0.43;0.43;;;5.10;99.90;;;;;;5114752;28;20053;-80
2021/12/10 00:12:32;;;;;;;1.23;0.68;;;5.10;99.90;;;;;;5114437;28;20159;-80
2021/12/10 00:14:58;;;;;;;1.92;0.73;;;5.10;99.90;;;;;;5096967;28;20062;-80
2021/12/10 00:17:24;;;;;;;2.13;0.40;;;5.00;99.90;;;;;;5114472;28;20444;-80
2021/12/10 00:19:55;;;;;;;1.05;0.88;;;5.10;99.90;;;;;;5114116;28;20055;-80
2021/12/10 00:22:26;;;;;;;0.43;0.43;;;5.10;99.90;;;;;;5097272;28;20461;-80
2021/12/10 00:24:53;;;;;;;0.20;0.10;;;5.00;99.90;;;;;;5096816;28;20040;-80
2021/12/10 00:27:27;;;;;;;0.00;0.00;;;5.10;99.90;;;;;;5096650;28;20128;-80
2021/12/10 00:30:03;;;;;;;1.27;1.25;;;5.20;99.90;;;;;;5114180;28;20050;-80
2021/12/10 00:32:34;;;;;;;0.95;0.38;;;5.10;99.90;;;;;;5113459;28;20134;-80
2021/12/10 00:35:05;;;;;;;0.50;0.38;;;5.10;99.90;;;;;;5113581;28;20055;-80
2021/12/10 00:37:31;;;;;;;0.63;0.50;;;5.10;99.90;;;;;;5097159;28;20142;-80
2021/12/10 00:40:01;;;;;;;0.10;0.10;;;5.10;99.90;;;;;;5096428;28;20082;-80
2021/12/10 00:42:33;;;;;;;0.20;0.20;;;5.10;99.90;;;;;;5113269;28;20044;-80
2021/12/10 00:45:00;;;;;;;0.38;0.20;;;5.10;99.90;;;;;;5095778;28;20085;-80
2021/12/10 00:47:27;;;;;;;1.00;0.90;;;5.10;99.90;;;;;;5114125;28;20044;-80
2021/12/10 00:49:53;;;;;;;4.88;0.90;;;5.10;99.90;;;;;;5097446;28;20043;-80
2021/12/10 00:52:19;;;;;;;2.35;1.17;;;5.10;99.90;;;;;;5113753;28;20051;-80
2021/12/10 00:54:46;;;;;;;2.83;0.57;;;5.00;99.90;;;;;;5113892;28;20039;-80
2021/12/10 00:57:13;;;;;;;0.38;0.10;;;5.10;99.90;;;;;;5096825;28;20059;-80
2021/12/10 00:59:41;;;;;;;2.42;0.45;;;5.10;99.90;;;;;;5096704;28;20070;-80
2021/12/10 01:02:10;;;;;;;0.00;0.00;;;5.00;99.90;;;;;;5113975;28;20051;-80
2021/12/10 01:04:40;;;;;;;0.10;0.10;;;5.10;99.90;;;;;;5096415;28;20055;-80
2021/12/10 01:07:10;;;;;;;6.13;2.05;;;5.00;99.90;;;;;;5096224;28;20047;-80
2021/12/10 01:09:39;;;;;;;0.20;0.20;;;5.20;99.90;;;;;;5113025;28;20035;-80
2021/12/10 01:12:07;;;;;;;0.20;0.20;;;5.00;99.90;;;;;;5095982;28;20058;-80
2021/12/10 01:25:51;;;;;;;0.47;0.47;;;5.00;99.90;;;;;;5113081;28;20052;-80
2021/12/10 01:28:17;;;;;;;0.65;0.35;;;5.00;99.90;;;;;;5112920;28;20546;-79
2021/12/10 01:30:44;;;;;;;1.83;0.47;;;5.00;99.90;;;;;;5112467;28;20132;-80
2021/12/10 01:33:16;;;;;;;1.38;0.10;;;5.00;99.90;;;;;;5095765;28;20130;-80
2021/12/10 01:35:54;;;;;;;0.40;0.40;;;4.90;99.90;;;;;;5095154;28;20126;-80
2021/12/10 01:38:21;;;;;;;0.38;0.38;;;5.00;99.90;;;;;;5096608;28;20394;-79
2021/12/10 01:40:53;;;;;;;3.25;0.75;;;5.00;99.90;;;;;;5112735;28;20075;-80
2021/12/10 01:43:23;;;;;;;0.68;0.68;;;4.90;99.90;;;;;;5095489;28;20051;-80
2021/12/10 01:46:07;;;;;;;0.08;0.00;;;4.90;99.90;;;;;;5095844;28;20091;-80
2021/12/10 01:48:50;;;;;;;0.10;0.10;;;4.90;99.90;;;;;;5096478;28;20096;-79
2021/12/10 01:51:19;;;;;;;5.28;0.20;;;4.90;99.90;;;;;;5113216;28;20055;-79
2021/12/10 01:53:48;;;;;;;0.52;0.52;;;4.90;99.90;;;;;;5095485;28;20048;-80
2021/12/10 01:56:17;;;;;;;0.45;0.10;;;4.90;99.90;;;;;;5095348;28;20490;-79
2021/12/10 01:58:45;;;;;;;0.45;0.22;;;4.90;99.90;;;;;;5113572;28;20352;-80
2021/12/10 02:01:19;;;;;;;0.22;0.13;;;4.90;99.90;;;;;;5096076;28;20044;-80
2021/12/10 02:03:46;;;;;;;0.55;0.55;;;4.80;99.90;;;;;;5095987;28;20402;-80
2021/12/10 02:06:12;;;;;;;0.00;0.00;;;4.80;99.90;;;;;;5096249;28;20481;-80
2021/12/10 02:08:39;;;;;;;0.38;0.10;;;4.80;99.90;;;;;;5113691;28;20048;-80
2021/12/10 02:11:05;;;;;;;0.38;0.15;;;4.80;99.90;;;;;;5096293;28;20089;-80
2021/12/10 02:13:31;;;;;;;0.08;0.00;;;4.80;99.90;;;;;;5114379;28;20051;-79
2021/12/10 02:15:57;;;;;;;0.00;0.00;;;4.80;99.90;;;;;;5099897;28;20043;-80
2021/12/10 02:18:23;;;;;;;0.10;0.05;;;4.80;99.90;;;;;;5116288;28;20403;-80
2021/12/10 02:20:52;;;;;;;0.25;0.20;;;4.80;99.90;;;;;;5116324;28;20043;-80
2021/12/10 02:23:18;;;;;;;0.00;0.00;;;4.80;99.90;;;;;;5099104;28;20096;-80
2021/12/10 02:25:43;;;;;;;2.40;0.28;;;4.80;99.90;;;;;;5116014;28;20039;-80
2021/12/10 02:28:12;;;;;;;0.52;0.32;;;4.80;99.90;;;;;;5099203;28;20058;-80
2021/12/10 02:30:39;;;;;;;3.20;0.13;;;4.80;99.90;;;;;;5116548;28;20091;-80
2021/12/10 02:33:06;;;;;;;0.15;0.10;;;4.80;99.90;;;;;;5099381;28;20074;-80
2021/12/10 02:35:32;;;;;;;0.00;0.00;;;4.80;99.90;;;;;;5099149;28;20055;-80
2021/12/10 02:37:58;;;;;;;0.52;0.52;;;4.80;99.90;;;;;;5116333;28;20112;-80
2021/12/10 02:40:27;;;;;;;2.30;1.50;;;4.80;99.90;;;;;;5115990;28;20047;-79
2021/12/10 02:42:54;;;;;;;0.20;0.17;;;4.80;99.90;;;;;;5099511;28;20046;-79
2021/12/10 02:45:22;;;;;;;0.00;0.00;;;4.80;99.90;;;;;;5098499;28;20083;-80
2021/12/10 02:47:48;;;;;;;0.00;0.00;;;4.80;99.90;;;;;;5098402;28;20040;-80
2021/12/10 02:50:16;;;;;;;0.30;0.30;;;4.80;99.90;;;;;;5115426;28;20039;-80
2021/12/10 02:52:43;;;;;;;0.28;0.20;;;4.80;99.90;;;;;;5098368;28;20071;-80
2021/12/10 02:55:10;;;;;;;0.20;0.20;;;4.80;99.90;;;;;;5115760;28;20073;-80
2021/12/10 02:57:38;;;;;;;0.82;0.08;;;4.90;99.90;;;;;;5098904;28;20058;-80
2021/12/10 03:00:10;;;;;;;0.22;0.00;;;4.70;99.90;;;;;;5099146;28;20054;-80
2021/12/10 03:02:37;;;;;;;1.65;0.60;;;4.70;99.90;;;;;;5115003;28;20035;-79
2021/12/10 03:05:05;;;;;;;0.65;0.65;;;4.70;99.90;;;;;;5098640;28;20055;-80
2021/12/10 03:07:32;;;;;;;1.63;1.02;;;4.70;99.90;;;;;;5098449;28;20043;-80
2021/12/10 03:09:58;;;;;;;0.10;0.10;;;4.70;99.90;;;;;;5115423;28;20429;-79
2021/12/10 03:12:23;;;;;;;0.43;0.43;;;4.70;99.90;;;;;;5115436;28;20043;-79
2021/12/10 03:14:54;;;;;;;0.60;0.55;;;4.70;99.90;;;;;;5115207;28;20052;-80
2021/12/10 03:17:24;;;;;;;1.20;1.10;;;4.70;99.90;;;;;;5098623;28;20088;-79
2021/12/10 03:19:51;;;;;;;0.30;0.30;;;4.70;99.90;;;;;;5115021;28;20039;-79
2021/12/10 03:22:17;;;;;;;0.57;0.57;;;4.60;99.90;;;;;;5114928;28;20517;-79
2021/12/10 03:24:43;;;;;;;0.30;0.10;;;4.60;99.90;;;;;;5096083;28;20051;-79
2021/12/10 03:27:10;;;;;;;1.98;0.20;;;4.60;99.90;;;;;;5097720;28;20070;-79
2021/12/10 03:29:39;;;;;;;0.60;0.60;;;4.70;99.90;;;;;;5115093;28;20044;-80
2021/12/10 03:32:08;;;;;;;0.40;0.40;;;4.60;99.90;;;;;;5098394;28;20096;-79
2021/12/10 03:34:35;;;;;;;0.05;0.05;;;4.60;99.90;;;;;;5098122;28;20498;-79
2021/12/10 03:37:02;;;;;;;0.20;0.20;;;4.60;99.90;;;;;;5114948;28;20418;-80
2021/12/10 03:39:28;;;;;;;0.03;0.03;;;4.60;99.90;;;;;;5115340;28;20043;-79
2021/12/10 03:41:56;;;;;;;0.95;0.57;;;4.50;99.90;;;;;;5115474;28;20141;-80
2021/12/10 03:44:22;;;;;;;1.38;0.40;;;4.60;99.90;;;;;;5098248;28;20039;-79
2021/12/10 03:46:48;;;;;;;0.30;0.30;;;4.50;99.90;;;;;;5098802;28;20410;-79
2021/12/10 03:49:14;;;;;;;0.20;0.20;;;4.50;99.90;;;;;;5097490;28;20044;-79
2021/12/10 03:51:40;;;;;;;2.63;1.17;;;4.40;99.90;;;;;;5113785;28;20051;-79
2021/12/10 03:54:08;;;;;;;0.32;0.13;;;4.30;99.90;;;;;;5114888;28;20048;-79
2021/12/10 03:56:36;;;;;;;0.30;0.30;;;4.30;99.90;;;;;;5097765;28;20398;-79
2021/12/10 03:59:05;;;;;;;0.10;0.10;;;4.30;99.90;;;;;;5097911;28;20394;-79
2021/12/10 04:01:34;;;;;;;0.93;0.93;;;4.20;99.90;;;;;;5114903;28;20040;-79
2021/12/10 04:04:03;;;;;;;0.00;0.00;;;4.20;99.90;;;;;;5114768;28;20051;-79
2021/12/10 04:06:29;;;;;;;0.10;0.10;;;4.10;99.90;;;;;;5097379;28;20114;-79
2021/12/10 04:08:57;;;;;;;3.30;0.43;;;4.10;99.90;;;;;;5114622;28;20394;-80
2021/12/10 04:11:23;;;;;;;0.28;0.20;;;4.00;99.90;;;;;;5097767;28;20153;-79
2021/12/10 04:13:52;;;;;;;0.00;0.00;;;4.00;99.90;;;;;;5096709;28;20083;-80
2021/12/10 04:16:19;;;;;;;0.00;0.00;;;3.90;99.90;;;;;;5114028;28;20402;-79
2021/12/10 04:18:48;;;;;;;0.40;0.40;;;3.90;99.90;;;;;;5096322;28;20054;-79
2021/12/10 04:21:15;;;;;;;0.75;0.20;;;3.80;99.90;;;;;;5114261;28;20039;-79
2021/12/10 04:23:43;;;;;;;0.50;0.10;;;3.80;99.90;;;;;;5096468;28;20047;-80
2021/12/10 04:26:11;;;;;;;0.13;0.13;;;3.70;99.90;;;;;;5114375;28;20050;-80
2021/12/10 04:28:36;;;;;;;0.55;0.55;;;3.70;99.90;;;;;;5096686;28;20491;-79
2021/12/10 04:31:03;;;;;;;0.30;0.30;;;3.70;99.90;;;;;;5114140;28;20050;-79
2021/12/10 04:33:29;;;;;;;0.52;0.52;;;3.70;99.90;;;;;;5114099;28;20040;-80
2021/12/10 04:35:57;;;;;;;0.00;0.00;;;3.60;99.90;;;;;;5113575;28;20097;-79
2021/12/10 04:38:26;;;;;;;0.38;0.25;;;3.50;99.90;;;;;;5097113;28;20043;-80
2021/12/10 04:40:56;;;;;;;0.50;0.50;;;3.60;99.90;;;;;;5113874;28;20100;-79
2021/12/10 04:43:23;;;;;;;1.00;0.77;;;3.60;99.90;;;;;;5113653;28;20086;-79
2021/12/10 04:45:52;;;;;;;0.05;0.05;;;3.50;99.90;;;;;;5114259;28;20223;-79
2021/12/10 04:48:18;;;;;;;0.85;0.57;;;3.50;99.90;;;;;;5113627;28;20544;-79
2021/12/10 04:50:44;;;;;;;0.75;0.55;;;3.50;99.90;;;;;;5114031;28;20047;-79
2021/12/10 04:53:11;;;;;;;0.00;0.00;;;3.40;99.90;;;;;;5113752;28;20154;-79
2021/12/10 04:55:37;;;;;;;0.45;0.45;;;3.40;99.90;;;;;;5114015;28;20043;-79
2021/12/10 04:58:04;;;;;;;0.90;0.30;;;3.40;99.90;;;;;;5114306;28;20038;-79
2021/12/10 05:00:35;;;;;;;0.30;0.30;;;3.30;99.90;;;;;;5113834;28;20047;-79
2021/12/10 05:03:04;;;;;;;0.52;0.52;;;3.30;99.90;;;;;;5097845;28;20039;-80
2021/12/10 05:05:30;;;;;;;0.25;0.22;;;3.30;99.90;;;;;;5113409;28;20050;-79
2021/12/10 05:07:56;;;;;;;0.50;0.30;;;3.20;99.90;;;;;;5113129;28;20044;-79
2021/12/10 05:10:22;;;;;;;2.25;0.15;;;3.30;99.90;;;;;;5113127;28;20046;-79
2021/12/10 05:12:48;;;;;;;0.00;0.00;;;3.20;99.90;;;;;;5113385;28;20047;-79
2021/12/10 05:15:22;;;;;;;0.20;0.20;;;3.20;99.90;;;;;;5112765;28;20455;-79
2021/12/10 05:17:49;;;;;;;0.55;0.47;;;3.20;99.90;;;;;;5096020;28;20505;-79
2021/12/10 05:20:19;;;;;;;0.00;0.00;;;3.10;99.90;;;;;;5095924;28;20052;-79
2021/12/10 05:22:47;;;;;;;0.60;0.60;;;3.20;99.90;;;;;;5113737;28;20043;-79
2021/12/10 05:25:15;;;;;;;0.08;0.08;;;3.00;99.90;;;;;;5113719;28;20096;-79
2021/12/10 05:27:41;;;;;;;0.20;0.15;;;3.00;99.90;;;;;;5113581;28;20093;-79
2021/12/10 05:30:11;;;;;;;1.25;0.95;;;3.00;99.90;;;;;;5113342;28;20051;-79
2021/12/10 05:32:36;;;;;;;0.28;0.25;;;3.00;99.90;;;;;;5096217;28;20069;-79
2021/12/10 05:35:04;;;;;;;0.30;0.30;;;3.00;99.90;;;;;;5096241;28;20113;-79
2021/12/10 05:37:30;;;;;;;0.00;0.00;;;3.00;99.90;;;;;;5096571;28;20043;-79
2021/12/10 05:39:55;;;;;;;0.10;0.10;;;2.90;99.90;;;;;;5113480;28;20051;-79
2021/12/10 05:42:21;;;;;;;0.45;0.25;;;2.90;99.90;;;;;;5095793;28;20086;-79
2021/12/10 05:44:47;;;;;;;0.00;0.00;;;2.90;99.90;;;;;;5112311;28;20082;-79
2021/12/10 05:47:13;;;;;;;0.20;0.20;;;2.80;99.90;;;;;;5112693;28;20047;-79
2021/12/10 05:49:39;;;;;;;0.20;0.20;;;2.90;99.90;;;;;;5115734;28;20606;-79
2021/12/10 05:52:05;;;;;;;0.00;0.00;;;2.80;99.90;;;;;;5117213;28;20043;-78
2021/12/10 05:54:31;;;;;;;0.10;0.10;;;2.80;99.90;;;;;;5116985;28;20075;-79
2021/12/10 05:56:57;;;;;;;0.00;0.00;;;2.70;99.90;;;;;;5116341;28;20048;-79
2021/12/10 05:59:23;;;;;;;0.00;0.00;;;2.70;99.90;;;;;;5116437;28;20128;-79
2021/12/10 06:01:49;;;;;;;0.10;0.10;;;2.60;99.90;;;;;;5099868;28;20402;-79
2021/12/10 06:04:21;;;;;;;0.00;0.00;;;2.60;99.90;;;;;;5116447;28;20043;-79
2021/12/10 06:06:46;;;;;;;2.17;1.10;;;2.60;99.90;;;;;;5116957;28;20053;-79
2021/12/10 06:09:12;;;;;;;0.10;0.10;;;2.60;99.90;;;;;;5116341;28;20386;-79
2021/12/10 06:11:38;;;;;;;0.30;0.30;;;2.60;99.90;;;;;;5116294;28;20039;-79
2021/12/10 06:14:04;;;;;;;0.20;0.20;;;2.60;99.90;;;;;;5116731;28;20087;-79
2021/12/10 06:16:30;;;;;;;0.00;0.00;;;2.50;99.90;;;;;;5099203;28;20059;-79
2021/12/10 06:18:56;;;;;;;0.05;0.05;;;2.50;99.90;;;;;;5116114;28;20429;-79
2021/12/10 06:21:22;;;;;;;0.98;0.15;;;2.50;99.90;;;;;;5116067;28;20035;-79
2021/12/10 06:23:48;;;;;;;0.10;0.10;;;2.50;99.90;;;;;;5115944;28;20067;-78
2021/12/10 06:26:14;;;;;;;0.00;0.00;;;2.40;99.90;;;;;;5115952;28;20040;-77
2021/12/10 06:28:44;;;;;;;0.65;0.10;;;2.40;99.90;;;;;;5116080;28;20098;-77
2021/12/10 06:31:11;;;;;;;1.17;0.25;;;2.40;99.90;;;;;;5099377;28;20047;-77
2021/12/10 06:33:37;;;;;;;0.00;0.00;;;2.40;99.90;;;;;;5116006;28;20040;-77
2021/12/10 06:36:06;;;;;;;0.00;0.00;;;2.30;99.90;;;;;;5115544;28;20113;-77
2021/12/10 06:38:33;;;;;;;0.25;0.25;;;2.30;99.90;;;;;;5116273;28;20430;-78
2021/12/10 06:40:59;;;;;;;0.10;0.10;;;2.30;99.90;;;;;;5115755;28;20047;-78
2021/12/10 06:43:25;;;;;;;0.63;0.60;;;2.30;99.90;;;;;;5098193;28;20052;-78
2021/12/10 06:45:52;;;;;;;0.00;0.00;;;2.20;99.90;;;;;;5099385;28;20368;-78
2021/12/10 06:48:22;;;;;;;0.00;0.00;;;2.20;99.90;;;;;;5098865;28;20050;-78
2021/12/10 06:50:56;;;;;;;0.00;0.00;;;2.30;99.90;;;;;;5098668;28;20166;-78
2021/12/10 06:53:24;;;;;;;0.25;0.25;;;2.20;99.90;;;;;;5098832;28;20050;-78
2021/12/10 06:55:51;;;;;;;0.00;0.00;;;2.20;99.90;;;;;;5098287;28;20138;-78
2021/12/10 06:58:17;;;;;;;0.28;0.28;;;2.20;99.90;;;;;;5115133;28;20039;-78
2021/12/10 07:01:03;;;;;;;0.22;0.22;;;2.20;99.90;;;;;;5115229;28;20055;-78
2021/12/10 07:03:29;;;;;;;0.00;0.00;;;2.20;99.90;;;;;;5098360;28;20422;-78
2021/12/10 07:05:58;;;;;;;0.00;0.00;;;2.10;99.90;;;;;;5115387;28;20165;-79
2021/12/10 07:08:26;;;;;;;0.82;0.08;;;2.10;99.90;;;;;;5115506;28;20052;-79
2021/12/10 07:10:52;;;;;;;1.35;0.52;;;2.10;99.90;;;;;;5097805;28;20052;-78
2021/12/10 07:13:19;;;;;;;0.00;0.00;;;2.10;99.90;;;;;;5115194;28;20491;-78
2021/12/10 07:15:47;;;;;;;2.17;0.50;;;2.10;99.90;;;;;;5114941;28;20054;-78
2021/12/10 07:18:14;;;;;;;0.00;0.00;;;2.00;99.90;;;;;;5097908;28;20542;-78
2021/12/10 07:20:41;;;;;;;0.40;0.30;;;2.10;99.90;;;;;;5114758;28;20051;-78
2021/12/10 07:23:08;;;;;;;0.00;0.00;;;2.00;99.90;;;;;;5097663;28;20043;-78
2021/12/10 07:25:33;;;;;;;0.30;0.00;;;2.00;99.90;;;;;;5114582;28;20360;-78
2021/12/10 07:27:59;;;;;;;2.50;0.20;;;2.10;99.90;;;;;;5115071;28;20055;-77
2021/12/10 07:30:27;;;;;;;0.20;0.20;;;2.10;99.90;;;;;;5097474;28;20498;-77
2021/12/10 07:32:54;;;;;;;5.18;0.32;;;2.10;99.90;;;;;;5114651;28;20163;-78
2021/12/10 07:35:20;;;;;;;0.10;0.10;;;2.10;99.90;;;;;;5097006;28;20078;-78
2021/12/10 07:37:46;;;;;;;0.00;0.00;;;2.00;99.90;;;;;;5097455;28;20102;-78
2021/12/10 07:40:16;;;;;;;0.00;0.00;;;2.10;99.90;;;;;;5114906;28;20098;-78
2021/12/10 07:42:42;;;;;;;0.00;0.00;;;2.10;99.90;;;;;;5114971;28;20040;-78
2021/12/10 07:45:09;;;;;;;0.13;0.10;;;2.10;99.90;;;;;;5114847;28;20394;-78
2021/12/10 07:47:37;;;;;;;0.08;0.08;;;2.10;99.90;;;;;;5097396;28;20487;-78
2021/12/10 07:50:13;;;;;;;0.00;0.00;;;2.10;99.90;;;;;;5114501;28;20043;-78
2021/12/10 07:52:40;;;;;;;0.13;0.13;;;2.30;99.90;;;;;;5097726;28;20062;-77
2021/12/10 07:55:10;;;;;;;0.00;0.00;;;2.10;99.90;;;;;;5096404;28;20487;-78
2021/12/10 07:57:36;;;;;;;0.10;0.10;;;2.20;99.90;;;;;;5112824;28;20043;-79
2021/12/10 08:00:07;;;;;;;0.75;0.32;;;2.10;99.90;;;;;;5112780;28;20055;-80
2021/12/10 08:02:32;;;;;;;0.00;0.00;;;2.10;99.90;;;;;;5110648;28;20407;-79
2021/12/10 08:04:58;;;;;;;0.47;0.47;;;2.20;99.90;;;;;;5112368;28;20290;-79
2021/12/10 08:07:25;;;;;;;0.38;0.38;;;2.20;99.90;;;;;;5116750;27;20552;-77
2021/12/10 08:09:52;;;;;;;0.00;0.00;;;2.20;99.90;;;;;;5095911;28;20070;-78
2021/12/10 08:12:18;;;;;;;0.35;0.35;;;2.20;99.90;;;;;;5094378;28;20055;-78
2021/12/10 08:14:46;;;;;;;0.00;0.00;;;2.20;99.90;;;;;;5112396;28;20035;-79
2021/12/10 08:17:12;;;;;;;0.00;0.00;;;2.30;99.90;;;;;;5093011;28;20091;-79
2021/12/10 08:19:38;;;;;;;0.00;0.00;;;2.20;99.90;;;;;;5094827;28;20055;-79
2021/12/10 08:22:04;;;;;;;0.00;0.00;;;2.30;99.90;;;;;;5111839;28;20058;-79
2021/12/10 08:24:30;;;;;;;0.00;0.00;;;2.30;99.90;;;;;;5111719;28;20530;-79
2021/12/10 08:26:56;;;;;;;0.50;0.50;;;2.30;99.90;;;;;;5137791;27;20119;-80
2021/12/10 08:29:24;;;;;;;0.00;0.00;;;2.40;99.90;;;;;;5120687;27;20046;-79
2021/12/10 08:31:50;;;;;;;0.08;0.08;;;2.50;99.90;;;;;;5112089;28;20047;-81
2021/12/10 08:34:16;;;;;;;0.05;0.00;;;2.50;99.90;;;;;;5096678;27;20062;-80
2021/12/10 08:36:44;;;;;;;0.00;0.00;;;2.50;99.90;;;;;;5095303;27;20043;-80
2021/12/10 08:39:11;;;;;;;0.40;0.40;;;2.50;99.90;;;;;;5115213;27;20047;-81
2021/12/10 08:41:38;;;;;;;1.30;0.00;;;2.60;99.90;;;;;;5115468;28;20043;-80
2021/12/10 08:44:06;;;;;;;0.00;0.00;;;3.00;99.90;;;;;;5115941;27;20095;-78
2021/12/10 08:46:32;;;;;;;0.20;0.20;;;3.50;99.90;;;;;;5099971;27;20137;-78
2021/12/10 08:48:59;;;;;;;0.15;0.15;;;4.20;99.90;;;;;;5117228;27;20047;-80
2021/12/10 08:51:49;;;;;;;0.00;0.00;;;4.20;99.90;;;;;;5117051;27;20483;-78
2021/12/10 08:54:17;;;;;;;0.00;0.00;;;4.50;99.90;;;;;;5018927;28;20078;-78
2021/12/10 08:56:45;;;;;;;0.00;0.00;;;4.80;99.90;;;;;;5019095;28;20489;-78
2021/12/10 08:59:12;;;;;;;1.00;0.30;;;5.20;99.90;;;;;;5035659;28;20061;-78
2021/12/10 09:01:42;;;;;;;0.00;0.00;;;5.50;99.90;;;;;;5035551;28;20040;-78
2021/12/10 09:04:09;;;;;;;0.85;0.03;;;6.10;99.90;;;;;;5018742;28;20143;-78
2021/12/10 09:06:38;;;;;;;0.00;0.00;;;6.40;99.90;;;;;;5018643;28;20049;-78
2021/12/10 09:09:07;;;;;;;0.05;0.00;;;6.50;99.90;;;;;;5034504;28;20140;-79
2021/12/10 09:11:34;;;;;;;1.55;0.47;;;6.40;99.90;;;;;;5018116;28;20128;-78
2021/12/10 09:13:59;;;;;;;0.00;0.00;;;6.30;99.90;;;;;;5034755;28;20049;-78
2021/12/10 09:16:30;;;;;;;0.30;0.15;;;6.40;99.90;;;;;;5034878;28;20366;-78
2021/12/10 09:19:00;;;;;;;0.15;0.00;;;6.30;99.90;;;;;;5018260;28;20393;-78
2021/12/10 09:21:26;;;;;;;0.10;0.00;;;6.60;99.90;;;;;;5018111;28;20056;-78
2021/12/10 09:23:55;;;;;;;1.08;0.80;;;7.20;99.90;;;;;;5038709;28;20056;-78
2021/12/10 09:26:25;;;;;;;0.00;0.00;;;7.80;99.90;;;;;;5023228;28;20084;-78
2021/12/10 09:28:51;;;;;;;0.00;0.00;;;8.40;99.90;;;;;;5022706;28;20088;-78
2021/12/10 09:31:18;;;;;;;0.00;0.00;;;8.80;99.90;;;;;;5082883;27;20137;-78
2021/12/10 09:33:43;;;;;;;0.05;0.05;;;9.40;99.90;;;;;;5103970;27;20043;-78
2021/12/10 09:36:10;;;;;;;0.00;0.00;;;9.80;98.90;;;;;;5120682;27;20127;-78
2021/12/10 09:38:36;;;;;;;0.32;0.13;;;10.20;99.90;;;;;;5120723;27;20061;-78
2021/12/10 09:41:05;;;;;;;0.28;0.28;;;10.40;93.80;;;;;;5102996;27;20466;-78
2021/12/10 09:43:33;;;;;;;0.65;0.20;;;10.40;96.20;;;;;;5120336;27;20117;-78
2021/12/10 09:46:01;;;;;;;0.35;0.35;;;10.70;96.10;;;;;;5120577;27;20097;-78
2021/12/10 09:48:27;;;;;;;0.20;0.20;;;10.30;90.80;;;;;;5120242;27;20050;-78
2021/12/10 09:51:01;;;;;;;0.00;0.00;;;10.40;92.10;;;;;;5103055;27;20047;-78
2021/12/10 09:53:29;;;;;;;0.00;0.00;;;10.20;91.50;;;;;;5103511;27;20104;-78
2021/12/10 09:55:56;;;;;;;0.10;0.00;;;10.50;91.50;;;;;;5102642;27;20073;-78
2021/12/10 09:58:23;;;;;;;0.10;0.10;;;10.30;91.60;;;;;;5103037;27;20129;-78
2021/12/10 10:01:05;;;;;;;0.30;0.30;;;10.10;93.00;;;;;;5102812;27;20062;-78
2021/12/10 10:03:35;;;;;;;0.00;0.00;;;9.70;93.20;;;;;;5103075;27;20035;-78
2021/12/10 10:06:01;;;;;;;0.10;0.10;;;9.50;94.60;;;;;;5102894;27;20488;-78
2021/12/10 10:08:28;;;;;;;0.17;0.17;;;9.40;96.30;;;;;;5120683;27;20047;-78
2021/12/10 10:11:02;;;;;;;0.10;0.10;;;8.90;96.30;;;;;;5103295;27;20054;-78
2021/12/10 10:13:32;;;;;;;3.30;0.93;;;8.90;97.80;;;;;;5102992;27;20046;-78
2021/12/10 10:15:59;;;;;;;0.00;0.00;;;8.80;97.00;;;;;;5120366;27;20035;-78
2021/12/10 10:18:28;;;;;;;0.00;0.00;;;8.70;97.60;;;;;;5119894;27;20044;-78
2021/12/10 10:20:58;;;;;;;0.00;0.00;;;9.10;96.10;;;;;;5102594;27;20062;-78
2021/12/10 10:23:25;;;;;;;0.00;0.00;;;9.30;94.90;;;;;;5103156;27;20043;-78
2021/12/10 10:25:54;;;;;;;0.00;0.00;;;9.20;94.20;;;;;;5119979;27;20051;-78
2021/12/10 10:28:21;;;;;;;0.28;0.28;;;9.20;94.70;;;;;;5102229;27;20103;-78
2021/12/10 10:30:57;;;;;;;0.00;0.00;;;9.80;95.00;;;;;;5118255;27;20554;-78
2021/12/10 10:33:24;;;;;;;0.00;0.00;;;10.30;90.20;;;;;;5102479;27;20055;-78
2021/12/10 10:35:57;;;;;;;0.73;0.38;;;10.40;87.50;;;;;;5100956;27;20061;-78
2021/12/10 10:38:25;;;;;;;0.20;0.10;;;10.70;90.00;;;;;;5102133;27;20091;-79
2021/12/10 10:40:59;;;;;;;0.80;0.80;;;10.60;84.90;;;;;;5101801;27;20555;-79
2021/12/10 10:43:27;;;;;;;0.08;0.08;;;10.30;86.60;;;;;;5102406;27;20035;-78
2021/12/10 10:45:53;;;;;;;1.65;0.63;;;10.20;88.40;;;;;;5102507;27;20050;-79
2021/12/10 10:48:21;;;;;;;0.00;0.00;;;10.40;86.50;;;;;;5101753;27;20051;-79
2021/12/10 10:50:53;;;;;;;0.00;0.00;;;10.80;88.50;;;;;;5102104;27;20478;-79
2021/12/10 10:53:23;;;;;;;0.10;0.10;;;11.30;84.90;;;;;;5101614;27;20492;-78
2021/12/10 10:55:54;;;;;;;0.00;0.00;;;11.40;80.10;;;;;;5102406;27;20042;-78
2021/12/10 10:58:23;;;;;;;0.00;0.00;;;11.80;81.80;;;;;;5102107;27;20054;-79
2021/12/10 11:01:07;;;;;;;0.00;0.00;;;12.10;78.30;;;;;;5101936;27;20058;-79
2021/12/10 11:03:42;;;;;;;0.30;0.30;;;11.80;76.70;;;;;;5101883;27;20092;-79
2021/12/10 11:06:18;;;;;;;0.00;0.00;;;11.20;74.70;;;;;;5102110;27;20051;-79
2021/12/10 11:08:48;;;;;;;0.00;0.00;;;10.90;78.50;;;;;;5102131;27;20053;-79
2021/12/10 11:11:22;;;;;;;0.00;0.00;;;10.60;82.80;;;;;;5119240;27;20092;-78
2021/12/10 11:14:01;;;;;;;0.10;0.00;;;10.20;84.50;;;;;;5119057;27;20051;-78
2021/12/10 11:16:30;;;;;;;0.00;0.00;;;9.50;86.40;;;;;;5119490;27;20035;-78
2021/12/10 11:19:01;;;;;;;0.20;0.20;;;9.30;88.90;;;;;;5101854;27;20050;-79
2021/12/10 11:21:47;;;;;;;0.22;0.22;;;9.30;92.20;;;;;;5101864;27;20484;-79
2021/12/10 11:24:24;;;;;;;0.08;0.00;;;9.00;92.50;;;;;;5119118;27;20051;-79
2021/12/10 11:26:55;;;;;;;0.10;0.00;;;9.10;93.10;;;;;;5119640;27;20055;-78
2021/12/10 11:29:51;;;;;;;4.80;0.75;;;9.00;93.50;;;;;;5101242;27;20100;-78
2021/12/10 11:32:41;;;;;;;0.00;0.00;;;8.70;94.20;;;;;;5090852;27;20051;-79
2021/12/10 11:35:14;;;;;;;0.25;0.00;;;8.40;94.60;;;;;;5099455;27;20043;-80
2021/12/10 11:37:55;;;;;;;0.20;0.20;;;8.20;94.80;;;;;;5098927;27;20043;-79
2021/12/10 11:40:38;;;;;;;0.10;0.10;;;8.10;96.90;;;;;;5116078;27;20398;-79
2021/12/10 11:46:28;;;;;;;2.63;0.63;;;8.00;98.40;;;;;;5111386;27;20099;-79
2021/12/10 11:49:08;;;;;;;0.00;0.00;;;7.90;97.00;;;;;;5115062;27;20064;-80
2021/12/10 11:51:39;;;;;;;0.00;0.00;;;7.90;96.70;;;;;;5114400;27;20043;-79
2021/12/10 11:54:22;;;;;;;0.00;0.00;;;7.90;96.70;;;;;;5118082;27;20043;-79
2021/12/10 11:56:55;;;;;;;0.20;0.20;;;7.80;97.70;;;;;;5100235;27;20124;-79
2021/12/10 11:59:55;;;;;;;0.30;0.30;;;7.80;97.90;;;;;;5100279;27;20059;-79
2021/12/10 12:02:22;;;;;;;1.10;0.38;;;7.60;97.00;;;;;;5117861;27;20050;-78
2021/12/10 12:05:22;;;;;;;0.00;0.00;;;7.60;97.90;;;;;;5100078;27;20093;-79
2021/12/10 12:07:50;;;;;;;0.00;0.00;;;7.70;98.50;;;;;;5029069;28;20041;-79
2021/12/10 12:10:26;;;;;;;0.00;0.00;;;7.70;98.00;;;;;;5019051;28;20079;-79
2021/12/10 12:12:59;;;;;;;0.00;0.00;;;7.70;97.70;;;;;;5035895;28;20061;-79
2021/12/10 12:15:30;;;;;;;0.00;0.00;;;7.70;97.30;;;;;;5006124;28;20087;-79
2021/12/10 12:18:04;;;;;;;0.22;0.22;;;7.70;98.20;;;;;;5015748;28;20061;-79
2021/12/10 12:20:38;;;;;;;0.55;0.55;;;7.60;97.50;;;;;;5000025;28;20413;-80
2021/12/10 12:26:22;;;;;;;0.17;0.17;;;7.60;98.60;;;;;;5049678;28;20053;-79
2021/12/10 12:28:52;;;;;;;0.00;0.00;;;7.50;99.60;;;;;;5015933;28;20107;-79
2021/12/10 12:31:23;;;;;;;0.70;0.17;;;7.70;98.30;;;;;;5049725;28;20105;-79
2021/12/10 12:34:08;;;;;;;0.10;0.10;;;7.80;96.90;;;;;;5049176;28;20057;-80
2021/12/10 12:36:58;;;;;;;6.35;0.13;;;7.80;96.50;;;;;;4998450;28;20053;-80
2021/12/10 12:39:27;;;;;;;0.00;0.00;;;7.90;97.40;;;;;;5031952;28;20049;-79
2021/12/10 12:41:53;;;;;;;0.00;0.00;;;8.00;97.40;;;;;;4999172;28;20057;-80
2021/12/10 12:44:19;;;;;;;0.35;0.20;;;8.00;97.30;;;;;;5054823;27;20138;-80
2021/12/10 12:46:56;;;;;;;0.55;0.10;;;7.90;97.20;;;;;;5117883;27;20042;-79
2021/12/10 12:49:22;;;;;;;0.00;0.00;;;7.90;96.50;;;;;;5100932;27;20043;-80
2021/12/10 12:52:38;;;;;;;0.60;0.28;;;8.00;98.60;;;;;;5134099;27;20092;-80
2021/12/10 12:55:17;;;;;;;;;;;8.00;96.70;;;;;;5035380;28;20061;-79
2021/12/10 12:57:52;;;;;;;0.00;0.00;;;8.10;98.80;;;;;;5035643;28;19928;-80
2021/12/10 13:00:23;;;;;;;0.00;0.00;;;8.00;98.20;;;;;;5035798;28;20084;-80
2021/12/10 13:02:55;;;;;;;0.25;0.10;;;7.90;97.90;;;;;;5018906;28;20053;-80
2021/12/10 13:05:41;;;;;;;0.13;0.10;;;7.70;97.50;;;;;;5018850;28;20063;-80
2021/12/10 13:08:13;;;;;;;0.00;0.00;;;7.50;96.50;;;;;;5035676;28;20373;-80
2021/12/10 13:10:42;;;;;;;0.00;0.00;;;7.50;97.20;;;;;;5019140;28;20061;-80
2021/12/10 13:13:24;;;;;;;0.30;0.00;;;7.40;97.90;;;;;;5034780;28;20053;-80
2021/12/10 13:15:51;;;;;;;0.00;0.00;;;7.50;98.70;;;;;;5018871;28;20049;-80
2021/12/10 13:18:19;;;;;;;0.00;0.00;;;7.40;98.70;;;;;;5035401;28;20052;-80
2021/12/10 13:20:51;;;;;;;0.40;0.17;;;7.50;99.80;;;;;;5018712;28;20049;-80
2021/12/10 13:23:21;;;;;;;0.00;0.00;;;7.30;99.40;;;;;;5017835;28;20049;-80